sensor_id;sensor_type;location;lat;lon;timestamp;pressure;altitude;pressure_sealevel;temperature;humidity
6464;BME280;3265;42.694;23.282;2023-10-19T00:02:08;72924.97;;;-143.21;81.25
6464;BME280;3265;42.694;23.282;2023-10-19T00:04:37;72934.91;;;-143.21;81.34
6464;BME280;3265;42.694;23.282;2023-10-19T00:07:05;72926.97;;;-143.21;81.47
6464;BME280;3265;42.694;23.282;2023-10-19T00:09:34;72919.03;;;-143.21;81.71
6464;BME280;3265;42.694;23.282;2023-10-19T00:12:03;72913.09;;;-143.21;81.18
6464;BME280;3265;42.694;23.282;2023-10-19T00:14:33;72921.00;;;-143.21;80.73
6464;BME280;3265;42.694;23.282;2023-10-19T00:16:58;72915.06;;;-143.21;80.64
6464;BME280;3265;42.694;23.282;2023-10-19T00:19:32;72915.06;;;-143.21;80.47
6464;BME280;3265;42.694;23.282;2023-10-19T00:22:04;72907.13;;;-143.21;80.96
6464;BME280;3265;42.694;23.282;2023-10-19T00:24:36;72915.06;;;-143.21;80.01
6464;BME280;3265;42.694;23.282;2023-10-19T00:27:02;72911.09;;;-143.21;80.01
6464;BME280;3265;42.694;23.282;2023-10-19T00:29:42;72911.09;;;-143.21;79.88
6464;BME280;3265;42.694;23.282;2023-10-19T00:32:14;72917.06;;;-143.21;80.37
6464;BME280;3265;42.694;23.282;2023-10-19T00:34:41;72919.03;;;-143.21;80.84
6464;BME280;3265;42.694;23.282;2023-10-19T00:37:15;72917.06;;;-143.21;80.78
6464;BME280;3265;42.694;23.282;2023-10-19T00:39:45;72917.06;;;-143.21;80.56
6464;BME280;3265;42.694;23.282;2023-10-19T00:42:15;72923.00;;;-143.21;80.97
6464;BME280;3265;42.694;23.282;2023-10-19T00:44:50;72921.00;;;-143.21;80.50
6464;BME280;3265;42.694;23.282;2023-10-19T00:47:20;72936.88;;;-143.21;80.56
6464;BME280;3265;42.694;23.282;2023-10-19T00:49:50;72954.72;;;-143.21;79.32
6464;BME280;3265;42.694;23.282;2023-10-19T00:52:17;72990.44;;;-143.21;79.73
6464;BME280;3265;42.694;23.282;2023-10-19T00:54:48;72998.38;;;-143.21;80.88
6464;BME280;3265;42.694;23.282;2023-10-19T00:57:20;73006.31;;;-143.21;82.27
6464;BME280;3265;42.694;23.282;2023-10-19T00:59:59;72996.38;;;-143.21;82.94
6464;BME280;3265;42.694;23.282;2023-10-19T01:02:36;72994.41;;;-143.21;83.07
6464;BME280;3265;42.694;23.282;2023-10-19T01:05:09;72986.47;;;-143.21;83.25
6464;BME280;3265;42.694;23.282;2023-10-19T01:07:39;72988.47;;;-143.21;82.62
6464;BME280;3265;42.694;23.282;2023-10-19T01:10:08;72980.53;;;-143.21;82.05
6464;BME280;3265;42.694;23.282;2023-10-19T01:12:37;72978.53;;;-143.21;82.44
6464;BME280;3265;42.694;23.282;2023-10-19T01:15:11;72970.59;;;-143.21;81.72
6464;BME280;3265;42.694;23.282;2023-10-19T01:17:43;72978.53;;;-143.21;81.63
6464;BME280;3265;42.694;23.282;2023-10-19T01:20:11;72976.56;;;-143.21;81.29
6464;BME280;3265;42.694;23.282;2023-10-19T01:22:50;72976.56;;;-143.21;81.36
6464;BME280;3265;42.694;23.282;2023-10-19T01:25:19;72970.59;;;-143.21;80.81
6464;BME280;3265;42.694;23.282;2023-10-19T01:27:52;72982.50;;;-143.21;80.52
6464;BME280;3265;42.694;23.282;2023-10-19T01:30:23;72982.50;;;-143.21;80.46
6464;BME280;3265;42.694;23.282;2023-10-19T01:32:52;72974.56;;;-143.21;79.78
6464;BME280;3265;42.694;23.282;2023-10-19T01:35:19;72972.59;;;-143.21;79.79
6464;BME280;3265;42.694;23.282;2023-10-19T01:37:46;72974.56;;;-143.21;79.49
6464;BME280;3265;42.694;23.282;2023-10-19T01:40:13;72978.53;;;-143.21;79.06
6464;BME280;3265;42.694;23.282;2023-10-19T01:42:46;72980.53;;;-143.21;79.43
6464;BME280;3265;42.694;23.282;2023-10-19T01:45:12;72990.44;;;-143.21;79.91
6464;BME280;3265;42.694;23.282;2023-10-19T01:47:40;73000.34;;;-143.21;79.67
6464;BME280;3265;42.694;23.282;2023-10-19T01:50:08;73006.31;;;-143.21;80.18
6464;BME280;3265;42.694;23.282;2023-10-19T01:52:45;72994.41;;;-143.21;80.33
6464;BME280;3265;42.694;23.282;2023-10-19T01:55:14;72984.50;;;-143.21;80.05
6464;BME280;3265;42.694;23.282;2023-10-19T01:57:46;72986.47;;;-143.21;79.56
6464;BME280;3265;42.694;23.282;2023-10-19T02:00:13;72986.47;;;-143.21;79.54
6464;BME280;3265;42.694;23.282;2023-10-19T02:02:48;72994.41;;;-143.21;79.91
6464;BME280;3265;42.694;23.282;2023-10-19T02:05:15;72974.56;;;-143.21;78.95
6464;BME280;3265;42.694;23.282;2023-10-19T02:07:44;72982.50;;;-143.21;79.13
6464;BME280;3265;42.694;23.282;2023-10-19T02:10:10;72994.41;;;-143.21;79.33
6464;BME280;3265;42.694;23.282;2023-10-19T02:12:39;72996.38;;;-143.21;79.44
6464;BME280;3265;42.694;23.282;2023-10-19T02:15:07;73012.25;;;-143.21;80.18
6464;BME280;3265;42.694;23.282;2023-10-19T02:17:34;73014.25;;;-143.21;79.71
6464;BME280;3265;42.694;23.282;2023-10-19T02:20:00;73016.22;;;-143.21;79.42
6464;BME280;3265;42.694;23.282;2023-10-19T02:22:29;73069.78;;;-143.21;79.66
6464;BME280;3265;42.694;23.282;2023-10-19T02:24:54;73103.50;;;-143.21;80.76
6464;BME280;3265;42.694;23.282;2023-10-19T02:27:22;73083.66;;;-143.21;81.77
6464;BME280;3265;42.694;23.282;2023-10-19T02:29:49;73089.63;;;-143.21;82.41
6464;BME280;3265;42.694;23.282;2023-10-19T02:32:16;73089.63;;;-143.21;83.02
6464;BME280;3265;42.694;23.282;2023-10-19T02:34:44;73067.78;;;-143.21;83.31
6464;BME280;3265;42.694;23.282;2023-10-19T02:37:12;73061.84;;;-143.21;83.16
6464;BME280;3265;42.694;23.282;2023-10-19T02:39:37;73059.88;;;-143.21;83.33
6464;BME280;3265;42.694;23.282;2023-10-19T02:42:05;73047.97;;;-143.21;82.94
6464;BME280;3265;42.694;23.282;2023-10-19T02:44:30;73042.00;;;-143.21;82.37
6464;BME280;3265;42.694;23.282;2023-10-19T02:46:59;73034.06;;;-143.21;82.08
6464;BME280;3265;42.694;23.282;2023-10-19T02:49:28;73040.03;;;-143.21;82.28
6464;BME280;3265;42.694;23.282;2023-10-19T02:51:55;73034.06;;;-143.21;82.22
6464;BME280;3265;42.694;23.282;2023-10-19T02:54:28;73030.09;;;-143.21;82.11
6464;BME280;3265;42.694;23.282;2023-10-19T02:56:58;73042.00;;;-143.21;82.02
6464;BME280;3265;42.694;23.282;2023-10-19T02:59:26;73045.97;;;-143.21;81.88
6464;BME280;3265;42.694;23.282;2023-10-19T03:01:55;73044.00;;;-143.21;81.75
6464;BME280;3265;42.694;23.282;2023-10-19T03:04:27;73040.03;;;-143.21;80.88
6464;BME280;3265;42.694;23.282;2023-10-19T03:06:54;73045.97;;;-143.21;80.55
6464;BME280;3265;42.694;23.282;2023-10-19T03:09:22;73032.09;;;-143.21;80.51
6464;BME280;3265;42.694;23.282;2023-10-19T03:11:54;73034.06;;;-143.21;79.95
6464;BME280;3265;42.694;23.282;2023-10-19T03:14:24;73030.09;;;-143.21;80.19
6464;BME280;3265;42.694;23.282;2023-10-19T03:16:51;73042.00;;;-143.21;80.60
6464;BME280;3265;42.694;23.282;2023-10-19T03:19:18;73049.94;;;-143.21;80.60
6464;BME280;3265;42.694;23.282;2023-10-19T03:21:47;73051.94;;;-143.21;80.77
6464;BME280;3265;42.694;23.282;2023-10-19T03:24:15;73055.91;;;-143.21;80.96
6464;BME280;3265;42.694;23.282;2023-10-19T03:26:48;73049.94;;;-143.21;80.73
6464;BME280;3265;42.694;23.282;2023-10-19T03:29:14;73061.84;;;-143.21;80.71
6464;BME280;3265;42.694;23.282;2023-10-19T03:31:43;73055.91;;;-143.21;80.50
6464;BME280;3265;42.694;23.282;2023-10-19T03:34:11;73051.94;;;-143.21;80.34
6464;BME280;3265;42.694;23.282;2023-10-19T03:36:42;73049.94;;;-143.21;79.79
6464;BME280;3265;42.694;23.282;2023-10-19T03:39:10;73040.03;;;-143.21;79.65
6464;BME280;3265;42.694;23.282;2023-10-19T03:41:41;73038.03;;;-143.21;79.42
6464;BME280;3265;42.694;23.282;2023-10-19T03:44:08;73030.09;;;-143.21;79.12
6464;BME280;3265;42.694;23.282;2023-10-19T03:46:40;73040.03;;;-143.21;79.63
6464;BME280;3265;42.694;23.282;2023-10-19T03:49:18;73042.00;;;-143.21;79.98
6464;BME280;3265;42.694;23.282;2023-10-19T03:51:46;73063.84;;;-143.21;80.30
6464;BME280;3265;42.694;23.282;2023-10-19T03:54:27;73111.44;;;-143.21;80.73
6464;BME280;3265;42.694;23.282;2023-10-19T03:56:58;73131.28;;;-143.21;81.05
6464;BME280;3265;42.694;23.282;2023-10-19T03:59:29;73123.34;;;-143.21;82.08
6464;BME280;3265;42.694;23.282;2023-10-19T04:01:59;73123.34;;;-143.21;82.89
6464;BME280;3265;42.694;23.282;2023-10-19T04:04:28;73115.41;;;-143.21;82.83
6464;BME280;3265;42.694;23.282;2023-10-19T04:06:55;73111.44;;;-143.21;82.88
6464;BME280;3265;42.694;23.282;2023-10-19T04:09:24;73111.44;;;-143.21;82.64
6464;BME280;3265;42.694;23.282;2023-10-19T04:11:55;73105.47;;;-143.21;82.60
6464;BME280;3265;42.694;23.282;2023-10-19T04:14:22;73095.56;;;-143.21;82.38
6464;BME280;3265;42.694;23.282;2023-10-19T04:16:50;73093.59;;;-143.21;82.42
6464;BME280;3265;42.694;23.282;2023-10-19T04:19:16;73093.59;;;-143.21;82.36
6464;BME280;3265;42.694;23.282;2023-10-19T04:21:43;73089.63;;;-143.21;82.35
6464;BME280;3265;42.694;23.282;2023-10-19T04:24:12;73089.63;;;-143.21;82.05
6464;BME280;3265;42.694;23.282;2023-10-19T04:26:39;73081.69;;;-143.21;82.18
6464;BME280;3265;42.694;23.282;2023-10-19T04:29:09;73085.66;;;-143.21;81.89
6464;BME280;3265;42.694;23.282;2023-10-19T04:31:37;73069.78;;;-143.21;81.52
6464;BME280;3265;42.694;23.282;2023-10-19T04:34:07;73073.75;;;-143.21;81.28
6464;BME280;3265;42.694;23.282;2023-10-19T04:36:34;73069.78;;;-143.21;81.08
6464;BME280;3265;42.694;23.282;2023-10-19T04:39:01;73061.84;;;-143.21;80.63
6464;BME280;3265;42.694;23.282;2023-10-19T04:41:28;73077.72;;;-143.21;80.66
6464;BME280;3265;42.694;23.282;2023-10-19T04:43:55;73067.78;;;-143.21;80.63
6464;BME280;3265;42.694;23.282;2023-10-19T04:46:25;73059.88;;;-143.21;80.87
6464;BME280;3265;42.694;23.282;2023-10-19T04:48:54;73059.88;;;-143.21;80.60
6464;BME280;3265;42.694;23.282;2023-10-19T04:51:21;73053.91;;;-143.21;80.58
6464;BME280;3265;42.694;23.282;2023-10-19T04:53:48;73053.91;;;-143.21;80.71
6464;BME280;3265;42.694;23.282;2023-10-19T04:56:14;73053.91;;;-143.21;80.47
6464;BME280;3265;42.694;23.282;2023-10-19T04:58:41;73053.91;;;-143.21;80.84
6464;BME280;3265;42.694;23.282;2023-10-19T05:01:08;73061.84;;;-143.21;80.96
6464;BME280;3265;42.694;23.282;2023-10-19T05:03:38;73061.84;;;-143.21;80.99
6464;BME280;3265;42.694;23.282;2023-10-19T05:06:05;73051.94;;;-143.21;80.97
6464;BME280;3265;42.694;23.282;2023-10-19T05:08:32;73069.78;;;-143.21;81.18
6464;BME280;3265;42.694;23.282;2023-10-19T05:10:59;73067.78;;;-143.21;81.76
6464;BME280;3265;42.694;23.282;2023-10-19T05:13:26;73071.75;;;-143.21;82.36
6464;BME280;3265;42.694;23.282;2023-10-19T05:15:54;73059.88;;;-143.21;82.99
6464;BME280;3265;42.694;23.282;2023-10-19T05:18:21;73055.91;;;-143.21;83.60
6464;BME280;3265;42.694;23.282;2023-10-19T05:20:53;73045.97;;;-143.21;83.46
6464;BME280;3265;42.694;23.282;2023-10-19T05:23:22;73042.00;;;-143.21;83.91
6464;BME280;3265;42.694;23.282;2023-10-19T05:25:50;73038.03;;;-143.21;83.96
6464;BME280;3265;42.694;23.282;2023-10-19T05:28:19;73024.16;;;-143.21;83.62
6464;BME280;3265;42.694;23.282;2023-10-19T05:30:47;73026.16;;;-143.21;83.63
6464;BME280;3265;42.694;23.282;2023-10-19T05:33:14;73028.13;;;-143.21;83.89
6464;BME280;3265;42.694;23.282;2023-10-19T05:35:41;73022.19;;;-143.21;83.78
6464;BME280;3265;42.694;23.282;2023-10-19T05:38:10;73014.25;;;-143.21;83.74
6464;BME280;3265;42.694;23.282;2023-10-19T05:40:37;73012.25;;;-143.21;83.65
6464;BME280;3265;42.694;23.282;2023-10-19T05:43:04;73002.34;;;-143.21;83.50
6464;BME280;3265;42.694;23.282;2023-10-19T05:45:33;72994.41;;;-143.21;83.27
6464;BME280;3265;42.694;23.282;2023-10-19T05:48:02;72984.50;;;-143.21;83.05
6464;BME280;3265;42.694;23.282;2023-10-19T05:50:32;72978.53;;;-143.21;82.94
6464;BME280;3265;42.694;23.282;2023-10-19T05:52:58;72966.63;;;-143.21;82.33
6464;BME280;3265;42.694;23.282;2023-10-19T05:55:27;72962.66;;;-143.21;82.08
6464;BME280;3265;42.694;23.282;2023-10-19T05:57:54;72956.72;;;-143.21;81.82
6464;BME280;3265;42.694;23.282;2023-10-19T06:00:21;72948.78;;;-143.21;82.43
6464;BME280;3265;42.694;23.282;2023-10-19T06:02:51;72940.84;;;-143.21;82.44
6464;BME280;3265;42.694;23.282;2023-10-19T06:05:19;72936.88;;;-143.21;82.26
6464;BME280;3265;42.694;23.282;2023-10-19T06:07:47;72944.81;;;-143.21;82.39
6464;BME280;3265;42.694;23.282;2023-10-19T06:10:15;72930.94;;;-143.21;83.02
6464;BME280;3265;42.694;23.282;2023-10-19T06:12:48;72926.97;;;-143.21;83.15
6464;BME280;3265;42.694;23.282;2023-10-19T06:15:16;72901.19;;;-143.21;83.56
6464;BME280;3265;42.694;23.282;2023-10-19T06:17:44;72897.22;;;-143.21;83.64
6464;BME280;3265;42.694;23.282;2023-10-19T06:20:11;72891.25;;;-143.21;83.38
6464;BME280;3265;42.694;23.282;2023-10-19T06:22:46;72881.34;;;-143.21;83.36
6464;BME280;3265;42.694;23.282;2023-10-19T06:25:16;72885.31;;;-143.21;82.68
6464;BME280;3265;42.694;23.282;2023-10-19T06:27:44;72877.38;;;-143.21;82.93
6464;BME280;3265;42.694;23.282;2023-10-19T06:30:13;72873.41;;;-143.21;83.25
6464;BME280;3265;42.694;23.282;2023-10-19T06:32:46;72871.44;;;-143.21;82.06
6464;BME280;3265;42.694;23.282;2023-10-19T06:35:13;72871.44;;;-143.21;82.13
6464;BME280;3265;42.694;23.282;2023-10-19T06:37:40;72861.50;;;-143.21;81.94
6464;BME280;3265;42.694;23.282;2023-10-19T06:40:08;72869.44;;;-143.21;82.26
6464;BME280;3265;42.694;23.282;2023-10-19T06:42:37;72867.47;;;-143.21;82.71
6464;BME280;3265;42.694;23.282;2023-10-19T06:45:05;72847.63;;;-143.21;82.59
6464;BME280;3265;42.694;23.282;2023-10-19T06:47:33;72831.75;;;-143.21;81.61
6464;BME280;3265;42.694;23.282;2023-10-19T06:50:06;72823.81;;;-143.21;81.29
6464;BME280;3265;42.694;23.282;2023-10-19T06:52:35;72796.06;;;-143.21;80.93
6464;BME280;3265;42.694;23.282;2023-10-19T06:58:07;72760.34;;;-143.21;80.40
6464;BME280;3265;42.694;23.282;2023-10-19T07:00:34;72732.59;;;-143.21;79.53
6464;BME280;3265;42.694;23.282;2023-10-19T07:03:11;72714.72;;;-143.21;78.09
6464;BME280;3265;42.694;23.282;2023-10-19T07:05:38;72704.81;;;-143.21;78.54
6464;BME280;3265;42.694;23.282;2023-10-19T07:08:06;72704.81;;;-143.21;78.37
6464;BME280;3265;42.694;23.282;2023-10-19T07:10:37;72740.53;;;-143.21;78.50
6464;BME280;3265;42.694;23.282;2023-10-19T07:13:04;72766.31;;;-143.21;77.24
6464;BME280;3265;42.694;23.282;2023-10-19T07:15:33;72782.16;;;-143.21;77.56
6464;BME280;3265;42.694;23.282;2023-10-19T07:18:06;72768.28;;;-143.21;78.95
6464;BME280;3265;42.694;23.282;2023-10-19T07:20:34;72742.50;;;-143.21;79.16
6464;BME280;3265;42.694;23.282;2023-10-19T07:23:03;72718.69;;;-143.21;79.08
6464;BME280;3265;42.694;23.282;2023-10-19T07:25:35;72696.88;;;-143.21;78.11
6464;BME280;3265;42.694;23.282;2023-10-19T07:28:08;72677.06;;;-143.21;77.58
6464;BME280;3265;42.694;23.282;2023-10-19T07:30:43;72653.25;;;-143.21;75.80
6464;BME280;3265;42.694;23.282;2023-10-19T07:33:16;72639.38;;;-143.21;75.62
6464;BME280;3265;42.694;23.282;2023-10-19T07:35:45;72621.53;;;-143.21;75.59
6464;BME280;3265;42.694;23.282;2023-10-19T07:38:14;72607.63;;;-143.21;74.94
6464;BME280;3265;42.694;23.282;2023-10-19T07:40:42;72593.75;;;-143.21;74.09
6464;BME280;3265;42.694;23.282;2023-10-19T07:43:11;72593.75;;;-143.21;74.10
6464;BME280;3265;42.694;23.282;2023-10-19T07:45:45;72601.69;;;-143.21;72.66
6464;BME280;3265;42.694;23.282;2023-10-19T07:48:13;72603.66;;;-143.21;73.07
6464;BME280;3265;42.694;23.282;2023-10-19T07:50:48;72633.41;;;-143.21;73.89
6464;BME280;3265;42.694;23.282;2023-10-19T07:53:14;72645.31;;;-143.21;75.28
6464;BME280;3265;42.694;23.282;2023-10-19T07:55:42;72637.38;;;-143.21;74.47
6464;BME280;3265;42.694;23.282;2023-10-19T07:58:09;72671.09;;;-143.21;74.85
6464;BME280;3265;42.694;23.282;2023-10-19T08:00:46;72712.75;;;-143.21;75.70
6464;BME280;3265;42.694;23.282;2023-10-19T08:03:13;72742.50;;;-143.21;76.88
6464;BME280;3265;42.694;23.282;2023-10-19T08:05:41;72740.53;;;-143.21;78.17
6464;BME280;3265;42.694;23.282;2023-10-19T08:08:10;72728.63;;;-143.21;78.13
6464;BME280;3265;42.694;23.282;2023-10-19T08:13:50;72681.03;;;-143.21;77.19
6464;BME280;3265;42.694;23.282;2023-10-19T08:16:24;72681.03;;;-143.21;76.90
6464;BME280;3265;42.694;23.282;2023-10-19T08:18:54;72673.09;;;-143.21;76.72
6464;BME280;3265;42.694;23.282;2023-10-19T08:21:21;72657.22;;;-143.21;76.93
6464;BME280;3265;42.694;23.282;2023-10-19T08:23:50;72625.47;;;-143.21;76.36
6464;BME280;3265;42.694;23.282;2023-10-19T08:26:19;72591.78;;;-143.21;75.93
6464;BME280;3265;42.694;23.282;2023-10-19T08:28:47;72564.00;;;-143.21;74.78
6464;BME280;3265;42.694;23.282;2023-10-19T08:31:15;72534.25;;;-143.21;73.45
6464;BME280;3265;42.694;23.282;2023-10-19T08:33:42;72500.53;;;-143.21;72.99
6464;BME280;3265;42.694;23.282;2023-10-19T08:36:17;72492.59;;;-143.21;71.71
6464;BME280;3265;42.694;23.282;2023-10-19T08:38:45;72506.50;;;-143.21;71.50
6464;BME280;3265;42.694;23.282;2023-10-19T08:41:15;72478.72;;;-143.21;72.09
6464;BME280;3265;42.694;23.282;2023-10-19T08:43:42;72419.22;;;-143.21;71.60
6464;BME280;3265;42.694;23.282;2023-10-19T08:46:09;72363.69;;;-143.21;68.83
6464;BME280;3265;42.694;23.282;2023-10-19T08:48:37;72312.13;;;-143.21;67.47
6464;BME280;3265;42.694;23.282;2023-10-19T08:51:10;72294.28;;;-143.21;65.52
6464;BME280;3265;42.694;23.282;2023-10-19T08:53:39;72278.41;;;-143.21;64.67
6464;BME280;3265;42.694;23.282;2023-10-19T08:56:06;72246.69;;;-143.21;64.70
6464;BME280;3265;42.694;23.282;2023-10-19T08:58:35;72218.94;;;-143.21;63.90
6464;BME280;3265;42.694;23.282;2023-10-19T09:01:02;72220.91;;;-143.21;63.51
6464;BME280;3265;42.694;23.282;2023-10-19T09:03:35;72230.81;;;-143.21;63.04
6464;BME280;3265;42.694;23.282;2023-10-19T09:06:03;72179.25;;;-143.21;63.91
6464;BME280;3265;42.694;23.282;2023-10-19T09:08:30;72103.91;;;-143.21;61.58
6464;BME280;3265;42.694;23.282;2023-10-19T09:11:06;72058.31;;;-143.21;59.94
6464;BME280;3265;42.694;23.282;2023-10-19T09:13:48;72020.63;;;-143.21;58.81
6464;BME280;3265;42.694;23.282;2023-10-19T09:16:18;71969.06;;;-143.21;58.39
6464;BME280;3265;42.694;23.282;2023-10-19T09:18:45;71943.28;;;-143.21;57.12
6464;BME280;3265;42.694;23.282;2023-10-19T09:21:21;71907.59;;;-143.21;57.35
6464;BME280;3265;42.694;23.282;2023-10-19T09:23:50;71887.78;;;-143.21;56.57
6464;BME280;3265;42.694;23.282;2023-10-19T09:26:18;71903.63;;;-143.21;56.03
6464;BME280;3265;42.694;23.282;2023-10-19T09:28:49;71893.72;;;-143.21;56.19
6464;BME280;3265;42.694;23.282;2023-10-19T09:31:17;71871.91;;;-143.21;56.07
6464;BME280;3265;42.694;23.282;2023-10-19T09:33:45;71852.06;;;-143.21;55.98
6464;BME280;3265;42.694;23.282;2023-10-19T09:36:13;71842.16;;;-143.21;55.70
6464;BME280;3265;42.694;23.282;2023-10-19T09:38:44;71838.19;;;-143.21;55.82
6464;BME280;3265;42.694;23.282;2023-10-19T09:41:15;71848.09;;;-143.21;55.42
6464;BME280;3265;42.694;23.282;2023-10-19T09:43:48;71854.06;;;-143.21;55.82
6464;BME280;3265;42.694;23.282;2023-10-19T09:46:22;71863.97;;;-143.21;55.95
6464;BME280;3265;42.694;23.282;2023-10-19T09:48:49;71863.97;;;-143.21;56.27
6464;BME280;3265;42.694;23.282;2023-10-19T09:51:18;71915.53;;;-143.21;57.08
6464;BME280;3265;42.694;23.282;2023-10-19T09:53:51;71992.88;;;-143.21;59.05
6464;BME280;3265;42.694;23.282;2023-10-19T09:56:27;72048.38;;;-143.21;60.59
6464;BME280;3265;42.694;23.282;2023-10-19T09:59:02;72024.59;;;-143.21;59.63
6464;BME280;3265;42.694;23.282;2023-10-19T10:04:34;72002.78;;;-143.21;59.11
6464;BME280;3265;42.694;23.282;2023-10-19T10:07:05;72058.31;;;-143.21;60.16
6464;BME280;3265;42.694;23.282;2023-10-19T10:09:36;72076.16;;;-143.21;61.40
6464;BME280;3265;42.694;23.282;2023-10-19T10:12:19;71986.91;;;-143.21;61.24
6464;BME280;3265;42.694;23.282;2023-10-19T10:14:55;71909.56;;;-143.21;59.30
6464;BME280;3265;42.694;23.282;2023-10-19T10:17:23;71784.66;;;-143.21;57.11
6464;BME280;3265;42.694;23.282;2023-10-19T10:19:53;71659.75;;;-143.21;54.08
6464;BME280;3265;42.694;23.282;2023-10-19T10:22:22;71546.72;;;-143.21;52.19
6464;BME280;3265;42.694;23.282;2023-10-19T10:24:53;71429.75;;;-143.21;50.47
6464;BME280;3265;42.694;23.282;2023-10-19T10:27:21;71324.66;;;-143.21;48.40
6464;BME280;3265;42.694;23.282;2023-10-19T10:29:56;71227.53;;;-143.21;46.82
6464;BME280;3265;42.694;23.282;2023-10-19T10:32:45;71158.13;;;-143.21;45.20
6464;BME280;3265;42.694;23.282;2023-10-19T10:38:13;71078.84;;;-143.21;42.46
6464;BME280;3265;42.694;23.282;2023-10-19T10:40:43;71055.06;;;-143.21;41.81
6464;BME280;3265;42.694;23.282;2023-10-19T10:43:10;71019.38;;;-143.21;42.31
6464;BME280;3265;42.694;23.282;2023-10-19T10:45:39;70965.84;;;-143.21;41.56
6464;BME280;3265;42.694;23.282;2023-10-19T10:48:11;70918.25;;;-143.21;40.53
6464;BME280;3265;42.694;23.282;2023-10-19T10:50:38;70858.78;;;-143.21;39.41
6464;BME280;3265;42.694;23.282;2023-10-19T10:53:06;70825.09;;;-143.21;38.85
6464;BME280;3265;42.694;23.282;2023-10-19T10:55:36;70831.03;;;-143.21;38.86
6464;BME280;3265;42.694;23.282;2023-10-19T10:58:03;70801.31;;;-143.21;38.80
6464;BME280;3265;42.694;23.282;2023-10-19T11:00:49;70759.69;;;-143.21;38.37
6464;BME280;3265;42.694;23.282;2023-10-19T11:03:17;70743.81;;;-143.21;37.59
6464;BME280;3265;42.694;23.282;2023-10-19T11:05:44;70749.78;;;-143.21;37.39
6464;BME280;3265;42.694;23.282;2023-10-19T11:08:13;70704.19;;;-143.21;37.16
6464;BME280;3265;42.694;23.282;2023-10-19T11:10:45;70676.44;;;-143.21;36.59
6464;BME280;3265;42.694;23.282;2023-10-19T11:13:13;70638.75;;;-143.21;36.37
6464;BME280;3265;42.694;23.282;2023-10-19T11:15:49;70620.94;;;-143.21;35.33
6464;BME280;3265;42.694;23.282;2023-10-19T11:18:28;70593.19;;;-143.21;35.30
6464;BME280;3265;42.694;23.282;2023-10-19T11:20:55;70559.47;;;-143.21;34.71
6464;BME280;3265;42.694;23.282;2023-10-19T11:23:38;70531.72;;;-143.21;34.43
6464;BME280;3265;42.694;23.282;2023-10-19T11:26:05;70509.94;;;-143.21;34.29
6464;BME280;3265;42.694;23.282;2023-10-19T11:28:32;70490.09;;;-143.21;33.95
6464;BME280;3265;42.694;23.282;2023-10-19T11:31:22;70460.38;;;-143.21;33.72
6464;BME280;3265;42.694;23.282;2023-10-19T11:33:51;70450.47;;;-143.21;33.20
6464;BME280;3265;42.694;23.282;2023-10-19T11:36:19;70458.41;;;-143.21;33.12
6464;BME280;3265;42.694;23.282;2023-10-19T11:38:51;70462.34;;;-143.21;33.05
6464;BME280;3265;42.694;23.282;2023-10-19T11:41:20;70438.56;;;-143.21;33.60
6464;BME280;3265;42.694;23.282;2023-10-19T11:43:48;70472.25;;;-143.21;33.75
6464;BME280;3265;42.694;23.282;2023-10-19T11:46:15;70460.38;;;-143.21;33.93
6464;BME280;3265;42.694;23.282;2023-10-19T11:48:44;70442.53;;;-143.21;33.55
6464;BME280;3265;42.694;23.282;2023-10-19T11:51:12;70420.72;;;-143.21;33.62
6464;BME280;3265;42.694;23.282;2023-10-19T11:53:41;70398.94;;;-143.21;33.10
6464;BME280;3265;42.694;23.282;2023-10-19T11:56:10;70383.06;;;-143.21;32.75
6464;BME280;3265;42.694;23.282;2023-10-19T11:58:39;70383.06;;;-143.21;33.00
6464;BME280;3265;42.694;23.282;2023-10-19T12:01:08;70383.06;;;-143.21;32.68
6464;BME280;3265;42.694;23.282;2023-10-19T12:03:37;70369.19;;;-143.21;32.30
6464;BME280;3265;42.694;23.282;2023-10-19T12:06:07;70365.25;;;-143.21;32.86
6464;BME280;3265;42.694;23.282;2023-10-19T12:08:34;70343.44;;;-143.21;32.43
6464;BME280;3265;42.694;23.282;2023-10-19T12:11:01;70329.56;;;-143.21;32.56
6464;BME280;3265;42.694;23.282;2023-10-19T12:13:29;70307.75;;;-143.21;32.07
6464;BME280;3265;42.694;23.282;2023-10-19T12:15:56;70307.75;;;-143.21;31.64
6464;BME280;3265;42.694;23.282;2023-10-19T12:18:23;70295.88;;;-143.21;31.77
6464;BME280;3265;42.694;23.282;2023-10-19T12:20:51;70297.84;;;-143.21;31.47
6464;BME280;3265;42.694;23.282;2023-10-19T12:23:23;70295.88;;;-143.21;31.46
6464;BME280;3265;42.694;23.282;2023-10-19T12:25:50;70285.97;;;-143.21;31.55
6464;BME280;3265;42.694;23.282;2023-10-19T12:28:18;70266.13;;;-143.21;31.24
6464;BME280;3265;42.694;23.282;2023-10-19T12:30:46;70250.28;;;-143.21;31.10
6464;BME280;3265;42.694;23.282;2023-10-19T12:33:16;70254.25;;;-143.21;31.22
6464;BME280;3265;42.694;23.282;2023-10-19T12:35:45;70252.25;;;-143.21;30.94
6464;BME280;3265;42.694;23.282;2023-10-19T12:38:17;70270.09;;;-143.21;31.09
6464;BME280;3265;42.694;23.282;2023-10-19T12:40:47;70282.00;;;-143.21;31.55
6464;BME280;3265;42.694;23.282;2023-10-19T12:43:16;70256.22;;;-143.21;31.33
6464;BME280;3265;42.694;23.282;2023-10-19T12:45:44;70214.59;;;-143.21;31.12
6464;BME280;3265;42.694;23.282;2023-10-19T12:48:19;70163.06;;;-143.21;30.22
6464;BME280;3265;42.694;23.282;2023-10-19T12:50:49;70131.38;;;-143.21;30.07
6464;BME280;3265;42.694;23.282;2023-10-19T12:53:16;70105.59;;;-143.21;29.81
6464;BME280;3265;42.694;23.282;2023-10-19T12:55:46;70089.75;;;-143.21;29.80
6464;BME280;3265;42.694;23.282;2023-10-19T12:58:32;70056.06;;;-143.21;29.20
6464;BME280;3265;42.694;23.282;2023-10-19T13:00:59;70014.44;;;-143.21;29.19
6464;BME280;3265;42.694;23.282;2023-10-19T13:03:26;69976.78;;;-143.21;28.64
6464;BME280;3265;42.694;23.282;2023-10-19T13:05:57;69945.06;;;-143.21;28.11
6464;BME280;3265;42.694;23.282;2023-10-19T13:08:24;69913.38;;;-143.21;28.03
6464;BME280;3265;42.694;23.282;2023-10-19T13:10:53;69905.44;;;-143.21;28.24
6464;BME280;3265;42.694;23.282;2023-10-19T13:13:22;69909.41;;;-143.21;28.21
6464;BME280;3265;42.694;23.282;2023-10-19T13:15:49;69909.41;;;-143.21;28.33